sensor_id;sensor_type;location;lat;lon;timestamp;temperature;humidity
79760;DHT22;70512;42.122;24.732;2024-02-21T00:00:39;8.00;92.20
79760;DHT22;70512;42.122;24.732;2024-02-21T00:03:07;8.00;92.10
79760;DHT22;70512;42.122;24.732;2024-02-21T00:05:35;8.20;92.20
79760;DHT22;70512;42.122;24.732;2024-02-21T00:08:03;8.20;92.30
79760;DHT22;70512;42.122;24.732;2024-02-21T00:10:31;8.20;92.50
79760;DHT22;70512;42.122;24.732;2024-02-21T00:12:59;8.10;92.70
79760;DHT22;70512;42.122;24.732;2024-02-21T00:15:27;8.10;92.70
79760;DHT22;70512;42.122;24.732;2024-02-21T00:17:54;8.10;92.70
79760;DHT22;70512;42.122;24.732;2024-02-21T00:20:22;8.00;92.70
79760;DHT22;70512;42.122;24.732;2024-02-21T00:22:52;8.00;92.70
79760;DHT22;70512;42.122;24.732;2024-02-21T00:25:20;8.00;92.90
79760;DHT22;70512;42.122;24.732;2024-02-21T00:27:47;8.00;93.00
79760;DHT22;70512;42.122;24.732;2024-02-21T00:30:15;8.00;93.00
79760;DHT22;70512;42.122;24.732;2024-02-21T00:32:43;8.00;93.20
79760;DHT22;70512;42.122;24.732;2024-02-21T00:35:10;8.00;93.30
79760;DHT22;70512;42.122;24.732;2024-02-21T00:37:39;8.00;93.30
79760;DHT22;70512;42.122;24.732;2024-02-21T00:40:07;8.10;93.00
79760;DHT22;70512;42.122;24.732;2024-02-21T00:42:35;8.10;92.90
79760;DHT22;70512;42.122;24.732;2024-02-21T00:45:02;8.10;93.00
79760;DHT22;70512;42.122;24.732;2024-02-21T00:47:30;8.00;93.00
79760;DHT22;70512;42.122;24.732;2024-02-21T00:49:58;8.00;93.00
79760;DHT22;70512;42.122;24.732;2024-02-21T00:52:25;7.80;93.20
79760;DHT22;70512;42.122;24.732;2024-02-21T00:54:53;7.80;93.20
79760;DHT22;70512;42.122;24.732;2024-02-21T00:57:21;7.80;93.10
79760;DHT22;70512;42.122;24.732;2024-02-21T00:59:49;7.80;93.10
79760;DHT22;70512;42.122;24.732;2024-02-21T01:02:16;7.80;93.30
79760;DHT22;70512;42.122;24.732;2024-02-21T01:04:44;7.80;93.20
79760;DHT22;70512;42.122;24.732;2024-02-21T01:07:12;7.70;93.30
79760;DHT22;70512;42.122;24.732;2024-02-21T01:09:39;7.70;93.40
79760;DHT22;70512;42.122;24.732;2024-02-21T01:12:07;7.70;93.50
79760;DHT22;70512;42.122;24.732;2024-02-21T01:14:35;7.80;93.40
79760;DHT22;70512;42.122;24.732;2024-02-21T01:17:02;7.90;93.10
79760;DHT22;70512;42.122;24.732;2024-02-21T01:19:32;8.00;92.90
79760;DHT22;70512;42.122;24.732;2024-02-21T01:22:00;8.00;92.90
79760;DHT22;70512;42.122;24.732;2024-02-21T01:24:27;8.00;92.80
79760;DHT22;70512;42.122;24.732;2024-02-21T01:26:55;8.00;92.60
79760;DHT22;70512;42.122;24.732;2024-02-21T01:29:23;8.10;92.10
79760;DHT22;70512;42.122;24.732;2024-02-21T01:31:50;8.10;91.60
79760;DHT22;70512;42.122;24.732;2024-02-21T01:34:18;8.20;91.00
79760;DHT22;70512;42.122;24.732;2024-02-21T01:36:45;8.20;90.80
79760;DHT22;70512;42.122;24.732;2024-02-21T01:39:13;8.10;90.50
79760;DHT22;70512;42.122;24.732;2024-02-21T01:41:41;8.10;89.80
79760;DHT22;70512;42.122;24.732;2024-02-21T01:44:08;8.20;89.90
79760;DHT22;70512;42.122;24.732;2024-02-21T01:46:37;8.30;90.10
79760;DHT22;70512;42.122;24.732;2024-02-21T01:49:05;8.30;90.10
79760;DHT22;70512;42.122;24.732;2024-02-21T01:51:33;8.40;89.70
79760;DHT22;70512;42.122;24.732;2024-02-21T01:54:01;8.40;89.30
79760;DHT22;70512;42.122;24.732;2024-02-21T01:56:29;8.40;87.60
79760;DHT22;70512;42.122;24.732;2024-02-21T01:58:57;8.50;87.50
79760;DHT22;70512;42.122;24.732;2024-02-21T02:01:25;8.50;87.90
79760;DHT22;70512;42.122;24.732;2024-02-21T02:03:53;8.50;87.50
79760;DHT22;70512;42.122;24.732;2024-02-21T02:06:21;8.60;87.50
79760;DHT22;70512;42.122;24.732;2024-02-21T02:08:49;8.70;87.60
79760;DHT22;70512;42.122;24.732;2024-02-21T02:11:17;8.70;87.50
79760;DHT22;70512;42.122;24.732;2024-02-21T02:13:45;8.70;88.10
79760;DHT22;70512;42.122;24.732;2024-02-21T02:16:12;8.60;88.30
79760;DHT22;70512;42.122;24.732;2024-02-21T02:18:40;8.80;88.20
79760;DHT22;70512;42.122;24.732;2024-02-21T02:21:11;8.70;88.00
79760;DHT22;70512;42.122;24.732;2024-02-21T02:23:38;8.70;88.70
79760;DHT22;70512;42.122;24.732;2024-02-21T02:26:06;8.60;90.00
79760;DHT22;70512;42.122;24.732;2024-02-21T02:28:34;8.60;90.00
79760;DHT22;70512;42.122;24.732;2024-02-21T02:31:03;8.60;90.00
79760;DHT22;70512;42.122;24.732;2024-02-21T02:33:30;8.50;90.10
79760;DHT22;70512;42.122;24.732;2024-02-21T02:35:58;8.50;90.30
79760;DHT22;70512;42.122;24.732;2024-02-21T02:38:26;8.50;90.60
79760;DHT22;70512;42.122;24.732;2024-02-21T02:40:53;8.50;90.70
79760;DHT22;70512;42.122;24.732;2024-02-21T02:43:21;8.50;91.00
79760;DHT22;70512;42.122;24.732;2024-02-21T02:45:49;8.50;91.10
79760;DHT22;70512;42.122;24.732;2024-02-21T02:48:16;8.50;91.50
79760;DHT22;70512;42.122;24.732;2024-02-21T02:50:46;8.50;91.40
79760;DHT22;70512;42.122;24.732;2024-02-21T02:53:14;8.40;91.40
79760;DHT22;70512;42.122;24.732;2024-02-21T02:55:41;8.40;91.60
79760;DHT22;70512;42.122;24.732;2024-02-21T02:58:09;8.40;91.50
79760;DHT22;70512;42.122;24.732;2024-02-21T03:00:37;8.40;91.70
79760;DHT22;70512;42.122;24.732;2024-02-21T03:03:06;8.40;91.70
79760;DHT22;70512;42.122;24.732;2024-02-21T03:05:35;8.40;91.70
79760;DHT22;70512;42.122;24.732;2024-02-21T03:08:03;8.40;91.70
79760;DHT22;70512;42.122;24.732;2024-02-21T03:10:32;8.30;91.80
79760;DHT22;70512;42.122;24.732;2024-02-21T03:13:00;8.30;92.10
79760;DHT22;70512;42.122;24.732;2024-02-21T03:15:28;8.40;92.30
79760;DHT22;70512;42.122;24.732;2024-02-21T03:17:55;8.30;92.70
79760;DHT22;70512;42.122;24.732;2024-02-21T03:20:23;8.30;92.90
79760;DHT22;70512;42.122;24.732;2024-02-21T03:22:51;8.30;92.90
79760;DHT22;70512;42.122;24.732;2024-02-21T03:25:18;8.40;93.00
79760;DHT22;70512;42.122;24.732;2024-02-21T03:27:46;8.30;93.10
79760;DHT22;70512;42.122;24.732;2024-02-21T03:30:14;8.30;93.20
79760;DHT22;70512;42.122;24.732;2024-02-21T03:32:42;8.30;93.20
79760;DHT22;70512;42.122;24.732;2024-02-21T03:35:09;8.30;93.30
79760;DHT22;70512;42.122;24.732;2024-02-21T03:37:37;8.30;93.40
79760;DHT22;70512;42.122;24.732;2024-02-21T03:40:07;8.30;93.40
79760;DHT22;70512;42.122;24.732;2024-02-21T03:42:35;8.30;93.10
79760;DHT22;70512;42.122;24.732;2024-02-21T03:45:03;8.40;93.10
79760;DHT22;70512;42.122;24.732;2024-02-21T03:47:30;8.40;93.10
79760;DHT22;70512;42.122;24.732;2024-02-21T03:49:58;8.40;92.50
79760;DHT22;70512;42.122;24.732;2024-02-21T03:52:26;8.40;92.00
79760;DHT22;70512;42.122;24.732;2024-02-21T03:54:54;8.40;92.60
79760;DHT22;70512;42.122;24.732;2024-02-21T03:57:21;8.50;92.50
79760;DHT22;70512;42.122;24.732;2024-02-21T03:59:52;8.50;92.40
79760;DHT22;70512;42.122;24.732;2024-02-21T04:02:19;8.50;92.20
79760;DHT22;70512;42.122;24.732;2024-02-21T04:04:47;8.60;91.90
79760;DHT22;70512;42.122;24.732;2024-02-21T04:07:15;8.60;91.90
79760;DHT22;70512;42.122;24.732;2024-02-21T04:09:43;8.60;91.70
79760;DHT22;70512;42.122;24.732;2024-02-21T04:12:11;8.60;91.50
79760;DHT22;70512;42.122;24.732;2024-02-21T04:14:38;8.70;91.70
79760;DHT22;70512;42.122;24.732;2024-02-21T04:17:06;8.50;90.30
79760;DHT22;70512;42.122;24.732;2024-02-21T04:19:34;8.40;89.20
79760;DHT22;70512;42.122;24.732;2024-02-21T04:22:01;8.30;88.80
79760;DHT22;70512;42.122;24.732;2024-02-21T04:24:29;8.30;89.20
79760;DHT22;70512;42.122;24.732;2024-02-21T04:26:57;8.30;89.60
79760;DHT22;70512;42.122;24.732;2024-02-21T04:29:24;8.20;90.00
79760;DHT22;70512;42.122;24.732;2024-02-21T04:31:54;8.30;90.40
79760;DHT22;70512;42.122;24.732;2024-02-21T04:34:21;8.30;90.80
79760;DHT22;70512;42.122;24.732;2024-02-21T04:36:50;8.30;91.30
79760;DHT22;70512;42.122;24.732;2024-02-21T04:39:17;8.30;91.80
79760;DHT22;70512;42.122;24.732;2024-02-21T04:41:45;8.40;91.90
79760;DHT22;70512;42.122;24.732;2024-02-21T04:44:13;8.30;91.50
79760;DHT22;70512;42.122;24.732;2024-02-21T04:46:42;8.30;91.50
79760;DHT22;70512;42.122;24.732;2024-02-21T04:49:10;8.20;91.60
79760;DHT22;70512;42.122;24.732;2024-02-21T04:51:37;8.20;91.80
79760;DHT22;70512;42.122;24.732;2024-02-21T04:54:06;8.20;91.80
79760;DHT22;70512;42.122;24.732;2024-02-21T04:56:36;8.20;91.70
79760;DHT22;70512;42.122;24.732;2024-02-21T04:59:03;8.20;91.70
79760;DHT22;70512;42.122;24.732;2024-02-21T05:01:31;8.10;91.70
79760;DHT22;70512;42.122;24.732;2024-02-21T05:03:58;8.10;91.70
79760;DHT22;70512;42.122;24.732;2024-02-21T05:06:26;8.10;92.00
79760;DHT22;70512;42.122;24.732;2024-02-21T05:08:54;8.10;92.00
79760;DHT22;70512;42.122;24.732;2024-02-21T05:11:22;8.10;92.00
79760;DHT22;70512;42.122;24.732;2024-02-21T05:13:50;8.20;92.00
79760;DHT22;70512;42.122;24.732;2024-02-21T05:16:18;8.20;92.00
79760;DHT22;70512;42.122;24.732;2024-02-21T05:18:46;8.10;91.80
79760;DHT22;70512;42.122;24.732;2024-02-21T05:21:13;8.00;91.80
79760;DHT22;70512;42.122;24.732;2024-02-21T05:23:41;8.00;92.00
79760;DHT22;70512;42.122;24.732;2024-02-21T05:26:09;8.00;92.50
79760;DHT22;70512;42.122;24.732;2024-02-21T05:28:37;8.00;92.10
79760;DHT22;70512;42.122;24.732;2024-02-21T05:31:05;8.00;91.70
79760;DHT22;70512;42.122;24.732;2024-02-21T05:33:32;8.10;91.80
79760;DHT22;70512;42.122;24.732;2024-02-21T05:36:00;8.10;91.70
79760;DHT22;70512;42.122;24.732;2024-02-21T05:38:28;8.20;91.20
79760;DHT22;70512;42.122;24.732;2024-02-21T05:40:55;8.10;91.20
79760;DHT22;70512;42.122;24.732;2024-02-21T05:43:23;8.10;91.40
79760;DHT22;70512;42.122;24.732;2024-02-21T05:45:51;8.10;91.80
79760;DHT22;70512;42.122;24.732;2024-02-21T05:48:19;8.10;91.70
79760;DHT22;70512;42.122;24.732;2024-02-21T05:50:47;8.10;91.40
79760;DHT22;70512;42.122;24.732;2024-02-21T05:53:14;8.20;91.30
79760;DHT22;70512;42.122;24.732;2024-02-21T05:55:42;8.20;91.20
79760;DHT22;70512;42.122;24.732;2024-02-21T05:58:11;8.30;91.00
79760;DHT22;70512;42.122;24.732;2024-02-21T06:00:40;8.30;91.40
79760;DHT22;70512;42.122;24.732;2024-02-21T06:03:08;8.30;91.30
79760;DHT22;70512;42.122;24.732;2024-02-21T06:05:38;8.30;90.80
79760;DHT22;70512;42.122;24.732;2024-02-21T06:08:06;8.40;90.60
79760;DHT22;70512;42.122;24.732;2024-02-21T06:10:34;8.50;90.80
79760;DHT22;70512;42.122;24.732;2024-02-21T06:13:02;8.60;90.50
79760;DHT22;70512;42.122;24.732;2024-02-21T06:15:30;8.70;90.20
79760;DHT22;70512;42.122;24.732;2024-02-21T06:17:57;8.70;90.60
79760;DHT22;70512;42.122;24.732;2024-02-21T06:20:25;8.80;90.40
79760;DHT22;70512;42.122;24.732;2024-02-21T06:22:53;8.90;90.00
79760;DHT22;70512;42.122;24.732;2024-02-21T06:25:21;8.90;89.80
79760;DHT22;70512;42.122;24.732;2024-02-21T06:27:49;9.10;90.00
79760;DHT22;70512;42.122;24.732;2024-02-21T06:30:17;9.20;89.70
79760;DHT22;70512;42.122;24.732;2024-02-21T06:32:44;9.30;88.00
79760;DHT22;70512;42.122;24.732;2024-02-21T06:35:13;9.50;87.10
79760;DHT22;70512;42.122;24.732;2024-02-21T06:37:40;9.50;86.40
79760;DHT22;70512;42.122;24.732;2024-02-21T06:40:08;9.60;85.40
79760;DHT22;70512;42.122;24.732;2024-02-21T06:42:36;9.70;85.70
79760;DHT22;70512;42.122;24.732;2024-02-21T06:45:04;9.80;85.30
79760;DHT22;70512;42.122;24.732;2024-02-21T06:47:32;9.90;86.50
79760;DHT22;70512;42.122;24.732;2024-02-21T06:49:59;10.10;85.80
79760;DHT22;70512;42.122;24.732;2024-02-21T06:52:27;10.30;85.10
79760;DHT22;70512;42.122;24.732;2024-02-21T06:54:54;10.50;84.50
79760;DHT22;70512;42.122;24.732;2024-02-21T06:57:22;10.70;82.90
79760;DHT22;70512;42.122;24.732;2024-02-21T06:59:50;10.90;81.50
79760;DHT22;70512;42.122;24.732;2024-02-21T07:02:18;11.10;80.70
79760;DHT22;70512;42.122;24.732;2024-02-21T07:04:45;11.10;78.20
79760;DHT22;70512;42.122;24.732;2024-02-21T07:07:13;11.20;76.70
79760;DHT22;70512;42.122;24.732;2024-02-21T07:09:41;11.00;77.60
79760;DHT22;70512;42.122;24.732;2024-02-21T07:12:08;11.00;77.40
79760;DHT22;70512;42.122;24.732;2024-02-21T07:14:36;11.10;76.40
79760;DHT22;70512;42.122;24.732;2024-02-21T07:20:26;11.50;74.20
79760;DHT22;70512;42.122;24.732;2024-02-21T07:22:53;11.90;74.40
79760;DHT22;70512;42.122;24.732;2024-02-21T07:25:21;12.70;71.20
79760;DHT22;70512;42.122;24.732;2024-02-21T07:27:49;12.80;68.60
79760;DHT22;70512;42.122;24.732;2024-02-21T07:30:16;12.60;68.70
79760;DHT22;70512;42.122;24.732;2024-02-21T07:32:44;12.70;69.00
79760;DHT22;70512;42.122;24.732;2024-02-21T07:38:33;12.90;68.90
79760;DHT22;70512;42.122;24.732;2024-02-21T09:04:07;14.50;60.90
79760;DHT22;70512;42.122;24.732;2024-02-21T09:06:34;14.80;59.20
79760;DHT22;70512;42.122;24.732;2024-02-21T09:09:04;14.40;60.70
79760;DHT22;70512;42.122;24.732;2024-02-21T09:11:31;14.60;59.50
79760;DHT22;70512;42.122;24.732;2024-02-21T09:13:59;14.40;60.50
79760;DHT22;70512;42.122;24.732;2024-02-21T09:16:27;14.70;58.90
79760;DHT22;70512;42.122;24.732;2024-02-21T09:18:54;16.20;55.90
79760;DHT22;70512;42.122;24.732;2024-02-21T09:21:24;17.10;52.90
79760;DHT22;70512;42.122;24.732;2024-02-21T09:23:51;17.20;51.40
79760;DHT22;70512;42.122;24.732;2024-02-21T09:26:19;18.50;48.80
79760;DHT22;70512;42.122;24.732;2024-02-21T09:28:47;20.80;44.30
79760;DHT22;70512;42.122;24.732;2024-02-21T09:31:14;22.70;40.20
79760;DHT22;70512;42.122;24.732;2024-02-21T09:33:42;24.10;36.10
79760;DHT22;70512;42.122;24.732;2024-02-21T09:36:10;26.10;32.10
79760;DHT22;70512;42.122;24.732;2024-02-21T09:38:39;28.00;29.10
79760;DHT22;70512;42.122;24.732;2024-02-21T09:41:14;28.80;27.50
79760;DHT22;70512;42.122;24.732;2024-02-21T09:43:40;29.60;26.70
79760;DHT22;70512;42.122;24.732;2024-02-21T09:46:21;30.20;25.20
79760;DHT22;70512;42.122;24.732;2024-02-21T09:48:54;29.20;25.70
79760;DHT22;70512;42.122;24.732;2024-02-21T09:51:19;28.80;24.80
79760;DHT22;70512;42.122;24.732;2024-02-21T09:53:48;27.80;26.10
79760;DHT22;70512;42.122;24.732;2024-02-21T09:56:16;29.50;25.30
79760;DHT22;70512;42.122;24.732;2024-02-21T09:58:44;28.90;24.40
79760;DHT22;70512;42.122;24.732;2024-02-21T10:01:11;29.20;24.80
79760;DHT22;70512;42.122;24.732;2024-02-21T10:03:39;29.20;24.20
79760;DHT22;70512;42.122;24.732;2024-02-21T10:06:07;28.70;24.60
79760;DHT22;70512;42.122;24.732;2024-02-21T10:08:35;29.70;24.90
79760;DHT22;70512;42.122;24.732;2024-02-21T10:11:02;30.40;23.80
79760;DHT22;70512;42.122;24.732;2024-02-21T10:13:30;30.80;22.90
79760;DHT22;70512;42.122;24.732;2024-02-21T10:16:08;31.70;22.90
79760;DHT22;70512;42.122;24.732;2024-02-21T10:18:36;32.90;22.30
79760;DHT22;70512;42.122;24.732;2024-02-21T10:21:06;33.30;20.90
79760;DHT22;70512;42.122;24.732;2024-02-21T10:23:49;33.80;20.60
79760;DHT22;70512;42.122;24.732;2024-02-21T10:26:18;33.50;20.50
79760;DHT22;70512;42.122;24.732;2024-02-21T10:28:42;34.40;20.10
79760;DHT22;70512;42.122;24.732;2024-02-21T10:31:27;34.00;19.60
79760;DHT22;70512;42.122;24.732;2024-02-21T10:33:56;33.80;19.90
79760;DHT22;70512;42.122;24.732;2024-02-21T10:36:24;33.30;20.10
79760;DHT22;70512;42.122;24.732;2024-02-21T10:38:52;33.60;20.10
79760;DHT22;70512;42.122;24.732;2024-02-21T10:41:22;33.90;19.30
79760;DHT22;70512;42.122;24.732;2024-02-21T10:43:52;32.60;19.80
79760;DHT22;70512;42.122;24.732;2024-02-21T10:46:23;32.20;19.90
79760;DHT22;70512;42.122;24.732;2024-02-21T10:49:26;32.80;20.40
79760;DHT22;70512;42.122;24.732;2024-02-21T10:54:40;34.20;20.30
79760;DHT22;70512;42.122;24.732;2024-02-21T10:57:09;35.20;18.90
79760;DHT22;70512;42.122;24.732;2024-02-21T10:59:38;35.20;19.00
79760;DHT22;70512;42.122;24.732;2024-02-21T11:02:06;34.70;18.60
79760;DHT22;70512;42.122;24.732;2024-02-21T11:04:35;33.00;19.80
79760;DHT22;70512;42.122;24.732;2024-02-21T11:07:05;32.90;20.40
79760;DHT22;70512;42.122;24.732;2024-02-21T11:09:33;31.20;20.20
79760;DHT22;70512;42.122;24.732;2024-02-21T11:12:05;31.20;20.40
79760;DHT22;70512;42.122;24.732;2024-02-21T11:14:33;31.90;21.00
79760;DHT22;70512;42.122;24.732;2024-02-21T11:17:02;32.20;19.60
79760;DHT22;70512;42.122;24.732;2024-02-21T11:19:30;30.60;21.30
79760;DHT22;70512;42.122;24.732;2024-02-21T11:21:58;27.80;22.60
79760;DHT22;70512;42.122;24.732;2024-02-21T11:24:32;28.30;23.00
79760;DHT22;70512;42.122;24.732;2024-02-21T11:27:18;30.00;22.10
79760;DHT22;70512;42.122;24.732;2024-02-21T11:29:48;30.30;22.10
79760;DHT22;70512;42.122;24.732;2024-02-21T11:32:19;31.80;20.60
79760;DHT22;70512;42.122;24.732;2024-02-21T11:35:03;31.90;20.70
79760;DHT22;70512;42.122;24.732;2024-02-21T11:37:35;30.70;21.30
79760;DHT22;70512;42.122;24.732;2024-02-21T11:40:06;29.70;22.50
79760;DHT22;70512;42.122;24.732;2024-02-21T11:42:36;29.50;21.50
79760;DHT22;70512;42.122;24.732;2024-02-21T11:45:04;27.80;22.50
79760;DHT22;70512;42.122;24.732;2024-02-21T11:47:32;28.20;23.20
79760;DHT22;70512;42.122;24.732;2024-02-21T11:49:59;30.10;21.80
79760;DHT22;70512;42.122;24.732;2024-02-21T11:52:27;28.70;22.30
79760;DHT22;70512;42.122;24.732;2024-02-21T11:54:55;26.50;24.30
79760;DHT22;70512;42.122;24.732;2024-02-21T11:57:24;28.40;23.40
79760;DHT22;70512;42.122;24.732;2024-02-21T11:59:52;30.50;21.10
79760;DHT22;70512;42.122;24.732;2024-02-21T12:02:21;31.90;20.30
79760;DHT22;70512;42.122;24.732;2024-02-21T12:04:49;33.10;19.50
79760;DHT22;70512;42.122;24.732;2024-02-21T12:07:18;32.70;19.30
79760;DHT22;70512;42.122;24.732;2024-02-21T12:09:45;32.90;19.60
79760;DHT22;70512;42.122;24.732;2024-02-21T12:12:14;33.50;19.10
79760;DHT22;70512;42.122;24.732;2024-02-21T12:14:43;33.60;18.70
79760;DHT22;70512;42.122;24.732;2024-02-21T12:17:10;33.80;19.00
79760;DHT22;70512;42.122;24.732;2024-02-21T12:19:38;34.20;18.70
79760;DHT22;70512;42.122;24.732;2024-02-21T12:22:06;35.40;18.30
79760;DHT22;70512;42.122;24.732;2024-02-21T12:24:35;36.40;17.60
79760;DHT22;70512;42.122;24.732;2024-02-21T12:27:04;34.70;17.60
79760;DHT22;70512;42.122;24.732;2024-02-21T12:29:32;32.00;18.70
79760;DHT22;70512;42.122;24.732;2024-02-21T12:32:00;32.00;19.40
79760;DHT22;70512;42.122;24.732;2024-02-21T12:34:28;33.40;18.40
79760;DHT22;70512;42.122;24.732;2024-02-21T12:36:59;34.30;17.40
79760;DHT22;70512;42.122;24.732;2024-02-21T12:39:26;32.20;19.10
79760;DHT22;70512;42.122;24.732;2024-02-21T12:41:58;30.80;19.80
79760;DHT22;70512;42.122;24.732;2024-02-21T12:44:26;28.20;22.00
79760;DHT22;70512;42.122;24.732;2024-02-21T12:46:54;27.00;23.40
79760;DHT22;70512;42.122;24.732;2024-02-21T12:49:22;26.40;24.40
79760;DHT22;70512;42.122;24.732;2024-02-21T12:51:50;28.50;22.70
79760;DHT22;70512;42.122;24.732;2024-02-21T12:54:18;30.50;20.30
79760;DHT22;70512;42.122;24.732;2024-02-21T12:56:46;30.50;19.80
79760;DHT22;70512;42.122;24.732;2024-02-21T12:59:13;30.40;19.30
79760;DHT22;70512;42.122;24.732;2024-02-21T13:01:41;30.50;19.50
79760;DHT22;70512;42.122;24.732;2024-02-21T13:04:09;29.00;20.30
79760;DHT22;70512;42.122;24.732;2024-02-21T13:06:38;29.30;20.80
79760;DHT22;70512;42.122;24.732;2024-02-21T13:09:06;30.40;20.50
79760;DHT22;70512;42.122;24.732;2024-02-21T13:11:38;32.00;19.40
79760;DHT22;70512;42.122;24.732;2024-02-21T13:14:07;32.30;18.20
79760;DHT22;70512;42.122;24.732;2024-02-21T13:16:35;32.40;18.10
79760;DHT22;70512;42.122;24.732;2024-02-21T13:19:04;32.60;17.90
79760;DHT22;70512;42.122;24.732;2024-02-21T13:21:32;32.20;18.20
79760;DHT22;70512;42.122;24.732;2024-02-21T13:24:00;31.30;18.30
79760;DHT22;70512;42.122;24.732;2024-02-21T13:26:28;31.70;18.90
79760;DHT22;70512;42.122;24.732;2024-02-21T13:28:55;31.80;19.00
79760;DHT22;70512;42.122;24.732;2024-02-21T13:31:23;31.70;19.50
79760;DHT22;70512;42.122;24.732;2024-02-21T13:33:51;30.50;19.80
79760;DHT22;70512;42.122;24.732;2024-02-21T13:36:19;30.00;20.70
79760;DHT22;70512;42.122;24.732;2024-02-21T13:38:47;30.50;20.00
79760;DHT22;70512;42.122;24.732;2024-02-21T13:41:15;31.20;19.70
79760;DHT22;70512;42.122;24.732;2024-02-21T13:43:42;31.30;18.70
79760;DHT22;70512;42.122;24.732;2024-02-21T13:46:10;30.20;19.50
79760;DHT22;70512;42.122;24.732;2024-02-21T13:48:38;27.30;21.40
79760;DHT22;70512;42.122;24.732;2024-02-21T13:51:05;23.80;24.50
79760;DHT22;70512;42.122;24.732;2024-02-21T13:53:34;21.80;27.40
79760;DHT22;70512;42.122;24.732;2024-02-21T13:56:01;21.50;28.60
79760;DHT22;70512;42.122;24.732;2024-02-21T13:58:29;23.80;26.60
79760;DHT22;70512;42.122;24.732;2024-02-21T14:00:57;26.20;24.00
79760;DHT22;70512;42.122;24.732;2024-02-21T14:03:24;26.40;22.30
79760;DHT22;70512;42.122;24.732;2024-02-21T14:05:52;24.40;23.60
79760;DHT22;70512;42.122;24.732;2024-02-21T14:08:20;22.40;26.00
79760;DHT22;70512;42.122;24.732;2024-02-21T14:10:48;21.20;27.60
79760;DHT22;70512;42.122;24.732;2024-02-21T14:13:16;20.30;29.50
79760;DHT22;70512;42.122;24.732;2024-02-21T14:15:44;19.50;30.30
79760;DHT22;70512;42.122;24.732;2024-02-21T14:18:16;18.50;31.50
79760;DHT22;70512;42.122;24.732;2024-02-21T14:20:44;18.10;32.60
79760;DHT22;70512;42.122;24.732;2024-02-21T14:23:13;17.50;37.10
79760;DHT22;70512;42.122;24.732;2024-02-21T14:25:41;17.10;38.90
79760;DHT22;70512;42.122;24.732;2024-02-21T14:28:08;16.80;40.40
79760;DHT22;70512;42.122;24.732;2024-02-21T14:30:36;16.20;41.90
79760;DHT22;70512;42.122;24.732;2024-02-21T14:33:04;16.00;42.80
79760;DHT22;70512;42.122;24.732;2024-02-21T14:35:32;15.90;42.90
79760;DHT22;70512;42.122;24.732;2024-02-21T14:38:00;15.80;43.30
79760;DHT22;70512;42.122;24.732;2024-02-21T14:40:28;15.90;43.50
79760;DHT22;70512;42.122;24.732;2024-02-21T14:42:56;15.90;43.80
79760;DHT22;70512;42.122;24.732;2024-02-21T14:45:24;15.90;44.30
79760;DHT22;70512;42.122;24.732;2024-02-21T14:47:52;15.80;44.40
79760;DHT22;70512;42.122;24.732;2024-02-21T14:50:19;15.70;44.60
79760;DHT22;70512;42.122;24.732;2024-02-21T14:52:47;15.60;44.80
79760;DHT22;70512;42.122;24.732;2024-02-21T14:55:15;15.60;45.40
79760;DHT22;70512;42.122;24.732;2024-02-21T14:57:43;15.50;45.20
79760;DHT22;70512;42.122;24.732;2024-02-21T15:00:11;15.50;45.10
79760;DHT22;70512;42.122;24.732;2024-02-21T15:02:39;15.40;45.60
79760;DHT22;70512;42.122;24.732;2024-02-21T15:05:07;15.40;46.00
79760;DHT22;70512;42.122;24.732;2024-02-21T15:07:35;15.40;45.70
79760;DHT22;70512;42.122;24.732;2024-02-21T15:10:02;15.30;46.30
79760;DHT22;70512;42.122;24.732;2024-02-21T15:12:30;15.40;46.10
79760;DHT22;70512;42.122;24.732;2024-02-21T15:14:58;15.40;46.30
79760;DHT22;70512;42.122;24.732;2024-02-21T15:17:26;15.30;46.00
79760;DHT22;70512;42.122;24.732;2024-02-21T15:19:53;15.20;46.30
79760;DHT22;70512;42.122;24.732;2024-02-21T15:22:21;15.20;46.90
79760;DHT22;70512;42.122;24.732;2024-02-21T15:24:49;15.10;46.50
79760;DHT22;70512;42.122;24.732;2024-02-21T15:27:18;15.00;46.90
79760;DHT22;70512;42.122;24.732;2024-02-21T15:29:45;14.90;47.30
79760;DHT22;70512;42.122;24.732;2024-02-21T15:32:13;14.90;47.80
79760;DHT22;70512;42.122;24.732;2024-02-21T15:34:41;14.90;48.00
79760;DHT22;70512;42.122;24.732;2024-02-21T15:37:08;14.90;47.90
79760;DHT22;70512;42.122;24.732;2024-02-21T15:39:37;14.80;47.90
79760;DHT22;70512;42.122;24.732;2024-02-21T15:42:05;14.80;48.80
79760;DHT22;70512;42.122;24.732;2024-02-21T15:44:33;14.80;49.00
79760;DHT22;70512;42.122;24.732;2024-02-21T15:47:01;14.70;48.40
79760;DHT22;70512;42.122;24.732;2024-02-21T15:49:29;14.60;48.70
79760;DHT22;70512;42.122;24.732;2024-02-21T15:51:57;14.60;49.10
79760;DHT22;70512;42.122;24.732;2024-02-21T15:54:25;14.50;49.30
79760;DHT22;70512;42.122;24.732;2024-02-21T15:56:54;14.30;49.70
79760;DHT22;70512;42.122;24.732;2024-02-21T15:59:22;14.20;50.10
79760;DHT22;70512;42.122;24.732;2024-02-21T16:01:50;14.10;50.60
79760;DHT22;70512;42.122;24.732;2024-02-21T16:04:18;14.00;50.80
79760;DHT22;70512;42.122;24.732;2024-02-21T16:06:46;14.00;51.00
79760;DHT22;70512;42.122;24.732;2024-02-21T16:09:15;14.00;50.70
79760;DHT22;70512;42.122;24.732;2024-02-21T16:11:43;13.90;51.20
79760;DHT22;70512;42.122;24.732;2024-02-21T16:14:11;13.90;51.60
79760;DHT22;70512;42.122;24.732;2024-02-21T16:16:38;13.90;51.80
79760;DHT22;70512;42.122;24.732;2024-02-21T16:19:07;13.80;52.50
79760;DHT22;70512;42.122;24.732;2024-02-21T16:21:35;13.80;52.50
79760;DHT22;70512;42.122;24.732;2024-02-21T16:24:02;13.70;52.40
79760;DHT22;70512;42.122;24.732;2024-02-21T16:26:33;13.60;52.40
79760;DHT22;70512;42.122;24.732;2024-02-21T16:29:00;13.50;52.80
79760;DHT22;70512;42.122;24.732;2024-02-21T16:31:29;13.50;52.60
79760;DHT22;70512;42.122;24.732;2024-02-21T16:33:57;13.40;52.90
79760;DHT22;70512;42.122;24.732;2024-02-21T16:36:25;13.40;52.90
79760;DHT22;70512;42.122;24.732;2024-02-21T16:38:53;13.40;52.40
79760;DHT22;70512;42.122;24.732;2024-02-21T16:41:21;13.40;53.00
79760;DHT22;70512;42.122;24.732;2024-02-21T16:43:48;13.40;52.40
79760;DHT22;70512;42.122;24.732;2024-02-21T16:46:16;13.40;52.00
79760;DHT22;70512;42.122;24.732;2024-02-21T16:48:46;13.40;52.10
79760;DHT22;70512;42.122;24.732;2024-02-21T16:51:13;13.40;52.20
79760;DHT22;70512;42.122;24.732;2024-02-21T16:53:41;13.30;52.80
79760;DHT22;70512;42.122;24.732;2024-02-21T16:56:09;13.30;53.00
79760;DHT22;70512;42.122;24.732;2024-02-21T16:58:42;13.40;53.00
79760;DHT22;70512;42.122;24.732;2024-02-21T17:01:10;13.40;52.50